今朝の羽田(2017/05/05)

APJ898/JA817P(A320)

QFA25/VH-OEB(B744)

ANA968/JA803A(B788)

ANA880/JA839A(B789)

JAL36/JA701J(B772)

JAL34/JA702J(B772)

*TTW217/B-50015(A320)

ANA844/JA886A(B789)

ANA850/JA885A(B789)

SIA636/9V-SWS(B77W)

*APJ859/JA817P(A320)

*AAR177/HL8282(A333)

ANA856/JA882A(B789)

ANA204/JA786A(B77W)

THA682/HS-TGA(B744)

*HKE625/B-LEC(A321)

RJTT 042000Z 18006KT 9999 FEW010 16/15 Q1018 NOSIG RMK 1CU010 A3008

RJTT 042100Z 26006KT 9999 FEW010 17/15 Q1018 BECMG 19006KT

RJTT 042200Z 28003KT 250V320 9999 FEW010 SCT/// 17/14 Q1018 BECMG 19006KT

今朝の羽田は少し雲があります。